createdAt,value
2023-04-16T00:00:31.629Z,0.70
2023-04-16T00:02:59.031Z,0.70
2023-04-16T00:05:26.481Z,0.60
2023-04-16T00:07:53.786Z,0.60
2023-04-16T00:10:21.093Z,0.70
2023-04-16T00:12:48.530Z,0.70
2023-04-16T00:15:15.794Z,0.70
2023-04-16T00:17:43.210Z,0.70
2023-04-16T00:20:10.987Z,0.70
2023-04-16T00:22:38.209Z,0.60
2023-04-16T00:25:06.118Z,0.60
2023-04-16T00:27:33.492Z,0.50
2023-04-16T00:30:00.756Z,0.50
2023-04-16T00:32:28.268Z,0.50
2023-04-16T00:34:55.716Z,0.50
2023-04-16T00:37:23.068Z,0.60
2023-04-16T00:39:51.225Z,0.70
2023-04-16T00:42:18.675Z,0.50
2023-04-16T00:44:45.868Z,0.50
2023-04-16T00:47:13.197Z,0.50
2023-04-16T00:49:40.651Z,0.60
2023-04-16T00:52:08.133Z,0.60
2023-04-16T00:54:36.006Z,0.60
2023-04-16T00:57:03.607Z,0.50
2023-04-16T00:59:30.972Z,0.40
2023-04-16T01:01:58.381Z,0.40
2023-04-16T01:04:25.903Z,0.40
2023-04-16T01:06:53.397Z,0.30
2023-04-16T01:09:20.567Z,0.30
2023-04-16T01:11:47.777Z,0.40
2023-04-16T01:14:15.091Z,0.40
2023-04-16T01:16:42.452Z,0.20
2023-04-16T01:19:10.104Z,0.20
2023-04-16T01:21:37.505Z,0.20
2023-04-16T01:24:05.728Z,0.10
2023-04-16T01:26:33.333Z,0.20
2023-04-16T01:29:00.975Z,0.30
2023-04-16T01:31:28.281Z,0.30
2023-04-16T01:33:55.601Z,0.20
2023-04-16T01:38:50.606Z,0.00
2023-04-16T01:41:17.759Z,0.00
2023-04-16T01:43:44.999Z,-0.10
2023-04-16T01:46:23.926Z,0.00
2023-04-16T01:48:51.203Z,-0.10
2023-04-16T01:51:18.495Z,-0.10
2023-04-16T01:53:46.052Z,0.00
2023-04-16T01:56:13.439Z,0.00
2023-04-16T01:58:40.611Z,0.00
2023-04-16T02:01:07.879Z,0.00
2023-04-16T02:03:35.666Z,-0.10
2023-04-16T02:06:03.027Z,-0.20
2023-04-16T02:08:32.950Z,-0.10
2023-04-16T02:11:00.725Z,0.00
2023-04-16T02:13:27.898Z,0.00
2023-04-16T02:15:55.398Z,-0.10
2023-04-16T02:18:22.703Z,0.00
2023-04-16T02:20:49.961Z,-0.20
2023-04-16T02:23:17.796Z,-0.10
2023-04-16T02:25:47.303Z,0.00
2023-04-16T02:28:17.286Z,-0.10
2023-04-16T02:30:44.821Z,0.00
2023-04-16T02:33:13.130Z,0.00
2023-04-16T02:35:40.878Z,0.00
2023-04-16T02:38:08.905Z,-0.20
2023-04-16T02:40:36.764Z,-0.10
2023-04-16T02:43:04.063Z,-0.20
2023-04-16T02:45:31.874Z,-0.10
2023-04-16T02:47:59.287Z,-0.20
2023-04-16T02:50:26.594Z,-0.20
2023-04-16T02:52:53.817Z,-0.20
2023-04-16T02:55:21.192Z,-0.20
2023-04-16T02:57:48.449Z,-0.20
2023-04-16T03:00:15.757Z,-0.40
2023-04-16T03:02:43.028Z,-0.40
2023-04-16T03:05:10.883Z,-0.40
2023-04-16T03:07:38.206Z,-0.50
2023-04-16T03:10:07.446Z,-0.50
2023-04-16T03:12:35.471Z,-0.60
2023-04-16T03:15:03.216Z,-0.50
2023-04-16T03:17:30.456Z,-0.50
2023-04-16T03:19:57.753Z,-0.50
2023-04-16T03:22:25.265Z,-0.70
2023-04-16T03:24:52.460Z,-0.60
2023-04-16T03:27:19.686Z,-0.70
2023-04-16T03:32:14.506Z,-0.70
2023-04-16T03:34:41.742Z,-0.80
2023-04-16T03:37:08.948Z,-0.80
2023-04-16T03:39:36.041Z,-0.80
2023-04-16T03:42:03.749Z,-0.80
2023-04-16T03:44:31.121Z,-0.80
2023-04-16T03:46:58.414Z,-0.70
2023-04-16T03:49:25.666Z,-0.70
2023-04-16T03:51:53.188Z,-0.80
2023-04-16T03:54:22.454Z,-0.80
2023-04-16T03:56:50.341Z,-0.80
2023-04-16T03:59:18.139Z,-0.70
2023-04-16T04:01:45.521Z,-0.70
2023-04-16T04:04:12.767Z,-0.80
2023-04-16T04:06:40.106Z,-0.80
2023-04-16T04:09:07.485Z,-0.80
2023-04-16T04:11:34.818Z,-0.80
2023-04-16T04:14:02.228Z,-0.80
2023-04-16T04:16:29.530Z,-0.80
2023-04-16T04:18:56.775Z,-0.80
2023-04-16T04:21:24.212Z,-0.80
2023-04-16T04:23:51.416Z,-0.80
2023-04-16T04:26:18.963Z,-0.70
2023-04-16T04:28:46.441Z,-0.70
2023-04-16T04:31:14.293Z,-0.70
2023-04-16T04:33:41.540Z,-0.60
2023-04-16T04:36:08.764Z,-0.60
2023-04-16T04:38:35.970Z,-0.70
2023-04-16T04:41:03.262Z,-0.70
2023-04-16T04:43:30.702Z,-0.60
2023-04-16T04:46:03.255Z,-0.50
2023-04-16T04:48:30.541Z,-0.40
2023-04-16T04:50:57.800Z,-0.40
2023-04-16T04:53:25.023Z,-0.50
2023-04-16T04:55:54.174Z,-0.40
2023-04-16T04:58:24.624Z,-0.40
2023-04-16T05:00:51.979Z,-0.30
2023-04-16T05:03:22.703Z,-0.30
2023-04-16T05:05:50.027Z,-0.30
2023-04-16T05:08:17.260Z,-0.30
2023-04-16T05:10:44.520Z,-0.20
2023-04-16T05:13:11.779Z,-0.20
2023-04-16T05:15:40.521Z,-0.10
2023-04-16T05:18:07.754Z,-0.10
2023-04-16T05:20:35.077Z,-0.10
2023-04-16T05:23:02.277Z,-0.10
2023-04-16T05:25:29.681Z,0.00
2023-04-16T05:27:57.065Z,0.10
2023-04-16T05:30:24.311Z,0.00
2023-04-16T05:32:51.732Z,0.10
2023-04-16T05:35:19.176Z,0.10
2023-04-16T05:37:47.683Z,0.10
2023-04-16T05:40:18.218Z,0.10
2023-04-16T05:42:51.814Z,0.10
2023-04-16T05:45:19.324Z,0.10
2023-04-16T05:47:46.485Z,0.10
2023-04-16T05:50:13.749Z,0.20
2023-04-16T05:52:41.090Z,0.10
2023-04-16T05:55:08.763Z,0.20
2023-04-16T05:57:36.026Z,0.20
2023-04-16T06:00:03.500Z,0.20
2023-04-16T06:02:30.970Z,0.30
2023-04-16T06:04:58.166Z,0.30
2023-04-16T06:07:25.339Z,0.30
2023-04-16T06:09:52.903Z,0.30
2023-04-16T06:12:20.157Z,0.40
2023-04-16T06:14:47.440Z,0.40
2023-04-16T06:17:14.872Z,0.50
2023-04-16T06:19:42.092Z,0.60
2023-04-16T06:22:09.498Z,0.70
2023-04-16T06:24:37.155Z,0.80
2023-04-16T06:27:04.729Z,0.90
2023-04-16T06:29:40.468Z,0.50
2023-04-16T06:32:08.719Z,1.10
2023-04-16T06:34:37.260Z,1.20
2023-04-16T06:37:04.507Z,1.20
2023-04-16T06:39:31.802Z,1.40
2023-04-16T06:41:59.115Z,1.50
2023-04-16T06:44:26.330Z,1.60
2023-04-16T06:46:53.773Z,1.70
2023-04-16T06:49:21.469Z,1.80
2023-04-16T06:51:48.713Z,1.90
2023-04-16T06:56:43.676Z,2.10
2023-04-16T06:59:11.373Z,2.20
2023-04-16T07:01:38.820Z,2.30
2023-04-16T07:04:06.182Z,2.40
2023-04-16T07:06:33.429Z,2.50
2023-04-16T07:09:00.657Z,2.50
2023-04-16T07:11:27.970Z,2.60
2023-04-16T07:13:55.388Z,2.70
2023-04-16T07:16:22.659Z,2.70
2023-04-16T07:18:49.985Z,2.80
2023-04-16T07:21:17.312Z,2.90
2023-04-16T07:23:44.616Z,3.00
2023-04-16T07:26:11.870Z,3.10
2023-04-16T07:28:39.155Z,3.10
2023-04-16T07:31:06.592Z,3.20
2023-04-16T07:33:33.846Z,3.20
2023-04-16T07:36:01.151Z,3.30
2023-04-16T07:38:28.367Z,3.40
2023-04-16T07:40:56.157Z,3.40
2023-04-16T07:43:23.334Z,3.50
2023-04-16T07:45:50.660Z,3.60
2023-04-16T07:48:17.937Z,3.70
2023-04-16T07:50:45.400Z,3.80
2023-04-16T07:55:40.213Z,4.00
2023-04-16T07:58:07.372Z,4.20
2023-04-16T08:00:34.616Z,4.30
2023-04-16T08:03:02.000Z,4.40
2023-04-16T08:05:29.516Z,4.50
2023-04-16T08:07:56.825Z,4.60
2023-04-16T08:10:24.077Z,4.70
2023-04-16T08:12:51.386Z,4.80
2023-04-16T08:15:18.789Z,4.90
2023-04-16T08:17:46.255Z,5.00
2023-04-16T08:20:16.945Z,5.10
2023-04-16T08:22:46.787Z,5.20
2023-04-16T08:25:14.737Z,5.30
2023-04-16T08:27:42.077Z,5.30
2023-04-16T08:30:09.408Z,5.40
2023-04-16T08:32:36.678Z,5.50
2023-04-16T08:35:04.527Z,5.60
2023-04-16T08:37:31.960Z,5.60
2023-04-16T08:39:59.123Z,5.70
2023-04-16T08:42:39.388Z,5.80
2023-04-16T08:45:18.302Z,5.80
2023-04-16T08:47:51.075Z,5.90
2023-04-16T08:50:25.313Z,6.00
2023-04-16T08:53:06.602Z,6.00
2023-04-16T08:55:40.632Z,5.90
2023-04-16T08:58:22.837Z,6.00
2023-04-16T09:00:50.321Z,6.10
2023-04-16T09:03:18.130Z,6.20
2023-04-16T09:05:46.758Z,6.20
2023-04-16T09:08:14.367Z,6.20
2023-04-16T09:10:42.501Z,6.30
2023-04-16T09:13:11.020Z,6.30
2023-04-16T09:15:39.871Z,6.30
2023-04-16T09:18:07.158Z,6.30
2023-04-16T09:20:35.163Z,6.40
2023-04-16T09:23:02.398Z,6.60
2023-04-16T09:25:36.032Z,6.70
2023-04-16T09:28:04.090Z,6.70
2023-04-16T09:30:31.260Z,6.70
2023-04-16T09:33:20.608Z,6.70
2023-04-16T09:35:50.271Z,6.70
2023-04-16T09:38:23.793Z,6.80
2023-04-16T09:41:07.836Z,6.90
2023-04-16T09:43:36.977Z,7.20
2023-04-16T09:46:08.210Z,7.20
2023-04-16T09:48:35.920Z,7.20
2023-04-16T09:51:07.029Z,7.10
2023-04-16T09:53:34.501Z,7.10
2023-04-16T09:56:05.464Z,7.20
2023-04-16T09:58:35.925Z,7.30
2023-04-16T10:01:05.426Z,7.30
2023-04-16T10:03:34.693Z,7.30
2023-04-16T10:06:19.405Z,7.40
2023-04-16T10:08:50.657Z,7.40
2023-04-16T10:11:19.786Z,7.30
2023-04-16T10:13:47.315Z,7.40
2023-04-16T10:16:14.750Z,7.50
2023-04-16T10:18:45.066Z,7.60
2023-04-16T10:21:14.013Z,7.80
2023-04-16T10:23:43.961Z,8.00
2023-04-16T10:26:11.616Z,8.10
2023-04-16T10:28:40.630Z,8.20
2023-04-16T10:31:09.771Z,8.40
2023-04-16T10:33:43.169Z,8.60
2023-04-16T10:36:17.080Z,8.80
2023-04-16T10:38:50.332Z,9.00
2023-04-16T10:41:22.759Z,9.10
2023-04-16T10:43:52.334Z,9.40
2023-04-16T10:46:32.118Z,9.60
2023-04-16T10:49:13.515Z,10.20
2023-04-16T10:51:44.335Z,10.50
2023-04-16T10:54:12.279Z,11.00
2023-04-16T10:56:48.185Z,11.40
2023-04-16T10:59:21.180Z,11.70
2023-04-16T11:01:56.114Z,11.40
2023-04-16T11:04:33.892Z,11.70
2023-04-16T11:07:13.270Z,11.60
2023-04-16T11:10:03.319Z,11.40
2023-04-16T11:15:17.819Z,13.00
2023-04-16T11:17:50.484Z,13.10
2023-04-16T11:20:25.321Z,13.80
2023-04-16T11:22:55.945Z,13.00
2023-04-16T11:25:26.009Z,12.40
2023-04-16T11:27:54.029Z,13.20
2023-04-16T11:30:36.575Z,12.80
2023-04-16T11:33:09.974Z,13.50
2023-04-16T11:35:39.520Z,13.70
2023-04-16T11:38:07.239Z,12.90
2023-04-16T11:40:35.417Z,13.50
2023-04-16T11:43:13.849Z,14.00
2023-04-16T11:48:56.169Z,14.20
2023-04-16T11:51:24.138Z,14.00
2023-04-16T11:53:53.763Z,14.60
2023-04-16T11:56:28.617Z,15.40
2023-04-16T11:59:15.805Z,14.50
2023-04-16T12:01:49.354Z,15.20
2023-04-16T12:04:20.650Z,15.70
2023-04-16T12:07:12.529Z,14.60
2023-04-16T12:09:42.676Z,14.20
2023-04-16T12:12:31.902Z,15.10
2023-04-16T12:15:00.314Z,15.80
2023-04-16T12:17:27.746Z,16.10
2023-04-16T12:20:00.942Z,16.20
2023-04-16T12:22:37.425Z,16.20
2023-04-16T12:25:16.762Z,16.60
2023-04-16T12:30:23.779Z,17.60
2023-04-16T12:33:12.116Z,18.20
2023-04-16T12:35:41.148Z,18.10
2023-04-16T12:40:36.985Z,18.00
2023-04-16T12:43:04.253Z,17.60
2023-04-16T12:45:31.711Z,16.70
2023-04-16T14:29:01.018Z,15.20
2023-04-16T14:31:28.495Z,15.10
2023-04-16T14:33:55.695Z,14.60
2023-04-16T14:36:23.025Z,14.90
2023-04-16T14:38:50.400Z,15.40
2023-04-16T14:41:17.715Z,15.60
2023-04-16T14:43:45.225Z,16.00
2023-04-16T14:46:12.667Z,16.50
2023-04-16T14:48:40.274Z,16.00
2023-04-16T14:51:07.520Z,15.60
2023-04-16T14:53:34.919Z,16.20
2023-04-16T14:56:02.324Z,16.30
2023-04-16T14:58:29.805Z,16.70
2023-04-16T15:00:59.097Z,16.60
2023-04-16T15:03:26.738Z,17.20
2023-04-16T15:15:46.356Z,17.80
2023-04-16T15:18:13.742Z,18.10
2023-04-16T15:20:41.075Z,18.10
2023-04-16T15:23:08.676Z,17.70
2023-04-16T15:25:36.046Z,17.90
2023-04-16T15:28:03.421Z,17.70
2023-04-16T15:30:31.628Z,17.70
2023-04-16T15:32:59.614Z,17.10
2023-04-16T15:35:26.905Z,17.20
2023-04-16T15:37:57.276Z,17.50
2023-04-16T15:40:25.555Z,17.10
2023-04-16T15:42:52.737Z,15.90
2023-04-16T15:45:20.097Z,15.10
2023-04-16T15:47:47.563Z,14.20
2023-04-16T15:50:15.195Z,13.90
2023-04-16T15:52:42.531Z,13.60
2023-04-16T15:55:10.325Z,13.40
2023-04-16T15:57:37.545Z,13.60
2023-04-16T16:00:07.373Z,13.50
2023-04-16T16:02:35.236Z,13.10
2023-04-16T16:05:03.127Z,12.70
2023-04-16T16:07:31.440Z,12.60
2023-04-16T16:09:58.848Z,12.40
2023-04-16T16:12:26.060Z,12.50
2023-04-16T16:14:53.353Z,12.30
2023-04-16T16:17:20.616Z,12.10
2023-04-16T16:19:48.125Z,12.00
2023-04-16T16:22:15.540Z,12.00
2023-04-16T16:24:42.935Z,12.00
2023-04-16T16:27:10.225Z,12.00
2023-04-16T16:29:37.519Z,11.90
2023-04-16T16:32:05.253Z,11.50
2023-04-16T16:34:32.759Z,11.30
2023-04-16T16:36:59.965Z,11.40
2023-04-16T16:39:27.654Z,11.30
2023-04-16T16:41:55.064Z,11.40
2023-04-16T16:44:23.085Z,11.30
2023-04-16T16:46:51.045Z,11.30
2023-04-16T16:49:18.754Z,11.20
2023-04-16T16:51:47.039Z,11.20
2023-04-16T16:54:14.888Z,11.00
2023-04-16T16:56:42.567Z,10.90
2023-04-16T16:59:10.852Z,10.70
2023-04-16T17:01:38.452Z,10.60
2023-04-16T17:04:06.082Z,10.60
2023-04-16T17:06:33.760Z,10.70
2023-04-16T17:09:02.248Z,10.30
2023-04-16T17:13:57.216Z,9.70
2023-04-16T17:16:25.019Z,9.60
2023-04-16T17:18:52.288Z,9.30
2023-04-16T17:21:19.402Z,9.50
2023-04-16T17:23:46.643Z,9.30
2023-04-16T17:26:14.386Z,9.30
2023-04-16T17:28:41.675Z,9.10
2023-04-16T17:31:08.912Z,9.10
2023-04-16T17:33:36.755Z,9.30
2023-04-16T17:36:04.900Z,9.90
2023-04-16T17:38:32.885Z,9.30
2023-04-16T17:41:00.382Z,9.20
2023-04-16T17:43:28.549Z,9.10
2023-04-16T17:45:56.390Z,9.20
2023-04-16T17:48:23.625Z,9.10
2023-04-16T17:50:51.008Z,9.00
2023-04-16T17:53:18.302Z,9.10
2023-04-16T17:55:54.547Z,9.10
2023-04-16T17:58:23.882Z,9.10
2023-04-16T18:00:51.339Z,9.00
2023-04-16T18:03:20.697Z,9.10
2023-04-16T18:05:49.438Z,9.10
2023-04-16T18:08:17.442Z,9.10
2023-04-16T18:10:45.505Z,9.10
2023-04-16T18:13:12.973Z,9.10
2023-04-16T18:15:40.613Z,8.90
2023-04-16T18:18:08.553Z,8.60
2023-04-16T18:20:35.922Z,8.50
2023-04-16T18:23:03.701Z,8.30
2023-04-16T18:25:34.960Z,8.20
2023-04-16T18:28:03.268Z,8.10
2023-04-16T18:30:31.010Z,8.00
2023-04-16T18:35:28.931Z,7.80
2023-04-16T18:37:56.388Z,7.70
2023-04-16T18:40:23.993Z,7.60
2023-04-16T18:42:52.992Z,7.70
2023-04-16T18:45:21.918Z,7.50
2023-04-16T18:47:49.801Z,7.50
2023-04-16T18:50:18.720Z,7.50
2023-04-16T18:52:46.335Z,7.40
2023-04-16T18:55:16.699Z,7.20
2023-04-16T18:57:44.550Z,7.20
2023-04-16T19:00:13.086Z,7.10
2023-04-16T19:02:40.806Z,7.10
2023-04-16T19:05:09.828Z,7.00
2023-04-16T19:07:37.687Z,6.90
2023-04-16T19:10:06.171Z,6.90
2023-04-16T19:12:33.452Z,6.80
2023-04-16T19:15:01.166Z,6.80
2023-04-16T19:17:28.611Z,6.70
2023-04-16T19:19:56.089Z,6.60
2023-04-16T19:22:23.656Z,6.60
2023-04-16T19:24:51.011Z,6.40
2023-04-16T19:27:18.480Z,6.40
2023-04-16T19:29:45.673Z,6.30
2023-04-16T19:32:14.135Z,6.20
2023-04-16T19:34:41.606Z,6.20
2023-04-16T19:37:08.881Z,6.00
2023-04-16T19:39:36.480Z,6.10
2023-04-16T19:42:04.471Z,6.10
2023-04-16T19:44:31.646Z,6.10
2023-04-16T19:46:59.590Z,5.90
2023-04-16T19:49:27.248Z,5.80
2023-04-16T19:51:54.504Z,5.70
2023-04-16T19:54:21.715Z,5.60
2023-04-16T19:56:50.288Z,5.40
2023-04-16T19:59:18.298Z,5.40
2023-04-16T20:01:46.510Z,5.40
2023-04-16T20:04:13.750Z,5.40
2023-04-16T20:06:41.493Z,5.30
2023-04-16T20:09:08.897Z,5.20
2023-04-16T20:11:36.208Z,5.20
2023-04-16T20:14:03.893Z,5.20
2023-04-16T20:16:31.379Z,5.20
2023-04-16T20:18:59.793Z,5.00
2023-04-16T20:21:28.024Z,5.00
2023-04-16T20:23:55.251Z,4.80
2023-04-16T20:28:50.368Z,4.70
2023-04-16T20:31:17.897Z,4.70
2023-04-16T20:33:45.595Z,4.70
2023-04-16T20:36:12.881Z,4.80
2023-04-16T20:38:40.124Z,4.90
2023-04-16T20:41:07.400Z,4.80
2023-04-16T20:43:34.596Z,4.70
2023-04-16T20:46:01.866Z,4.60
2023-04-16T20:48:29.126Z,4.70
2023-04-16T20:51:04.539Z,4.70
2023-04-16T20:53:32.884Z,4.60
2023-04-16T20:56:00.413Z,4.60
2023-04-16T20:58:27.811Z,4.70
2023-04-16T21:00:57.494Z,4.60
2023-04-16T21:03:26.258Z,4.80
2023-04-16T21:05:55.672Z,4.60
2023-04-16T21:08:24.420Z,4.60
2023-04-16T21:10:51.859Z,4.50
2023-04-16T21:13:19.648Z,4.40
2023-04-16T21:15:47.062Z,4.60
2023-04-16T21:18:14.664Z,4.40
2023-04-16T21:20:41.856Z,4.30
2023-04-16T21:25:36.760Z,4.00
2023-04-16T21:28:04.110Z,4.00
2023-04-16T21:30:31.253Z,4.00
2023-04-16T21:32:58.691Z,3.90
2023-04-16T21:35:26.133Z,3.80
2023-04-16T21:37:53.509Z,3.70
2023-04-16T21:40:20.835Z,3.60
2023-04-16T21:45:15.642Z,3.60
2023-04-16T21:47:43.011Z,3.60
2023-04-16T21:50:11.015Z,3.40
2023-04-16T21:52:38.338Z,3.40
2023-04-16T21:55:08.038Z,3.50
2023-04-16T21:57:35.288Z,3.60
2023-04-16T22:00:02.848Z,3.60
2023-04-16T22:02:30.190Z,3.50
2023-04-16T22:04:57.403Z,3.50
2023-04-16T22:07:24.532Z,3.50
2023-04-16T22:09:51.664Z,3.60
2023-04-16T22:12:18.938Z,3.60
2023-04-16T22:14:59.558Z,3.60
2023-04-16T22:17:29.433Z,3.50
2023-04-16T22:19:56.718Z,3.40
2023-04-16T22:22:23.974Z,3.30
2023-04-16T22:24:51.264Z,3.30
2023-04-16T22:27:18.921Z,3.30
2023-04-16T22:29:46.241Z,3.20
2023-04-16T22:32:13.475Z,3.10
2023-04-16T22:34:40.778Z,3.10
2023-04-16T22:37:08.133Z,3.00
2023-04-16T22:39:35.434Z,3.10
2023-04-16T22:42:02.687Z,3.00
2023-04-16T22:44:29.865Z,2.90
2023-04-16T22:46:57.238Z,2.90
2023-04-16T22:49:24.482Z,2.90
2023-04-16T22:51:51.686Z,3.00
2023-04-16T22:54:18.878Z,3.00
2023-04-16T22:56:46.509Z,2.90
2023-04-16T22:59:13.880Z,2.80
2023-04-16T23:01:41.199Z,2.80
2023-04-16T23:04:08.556Z,2.80
2023-04-16T23:06:35.821Z,2.70
2023-04-16T23:09:03.096Z,2.80
2023-04-16T23:11:30.281Z,2.70
2023-04-16T23:13:57.637Z,2.70
2023-04-16T23:16:24.915Z,2.70
2023-04-16T23:18:52.137Z,2.80
2023-04-16T23:21:19.231Z,2.70
2023-04-16T23:23:46.507Z,2.60
2023-04-16T23:26:13.908Z,2.70
2023-04-16T23:28:41.523Z,2.70
2023-04-16T23:31:08.962Z,2.60
2023-04-16T23:33:36.144Z,2.60
2023-04-16T23:36:03.665Z,2.70
2023-04-16T23:38:30.939Z,2.60
2023-04-16T23:40:58.130Z,2.70
2023-04-16T23:43:25.416Z,2.60
2023-04-16T23:45:52.709Z,2.50
2023-04-16T23:48:20.070Z,2.60
2023-04-16T23:50:47.546Z,2.60
2023-04-16T23:53:14.776Z,2.50
2023-04-16T23:55:42.040Z,2.50
2023-04-16T23:58:09.273Z,2.40
